Time;durP1;ratioP1;P1;durP2;ratioP2;P2;SDS_P1;SDS_P2;PMS_P1;PMS_P2;Temp;Humidity;BMP_temperature;BMP_pressure;BME280_temperature;BME280_humidity;BME280_pressure;Samples;Min_cycle;Max_cycle;Signal;HPM_P1;HPM_P2
2023/05/04 00:01:39;;;;;;;5.32;3.33;;;;;;;-145.41;100.00;58600.66;4986967;28;20460;-75
2023/05/04 00:04:04;;;;;;;5.75;3.00;;;;;;;-145.41;100.00;58600.66;4970087;28;20493;-75
2023/05/04 00:06:30;;;;;;;6.28;3.30;;;;;;;-145.41;100.00;58600.66;4983863;28;20038;-75
2023/05/04 00:08:55;;;;;;;6.65;3.38;;;;;;;-145.41;100.00;58600.66;4986432;28;20042;-74
2023/05/04 00:11:21;;;;;;;7.13;3.50;;;;;;;-145.41;100.00;58600.66;4984123;28;20113;-75
2023/05/04 00:13:46;;;;;;;7.45;3.90;;;;;;;-145.41;100.00;58600.66;4985118;28;20041;-75
2023/05/04 00:16:11;;;;;;;6.97;4.32;;;;;;;-145.41;100.00;58600.66;4989942;28;20081;-75
2023/05/04 00:18:37;;;;;;;7.40;3.92;;;;;;;-145.41;100.00;58600.66;4984076;28;20046;-75
2023/05/04 00:21:03;;;;;;;9.32;3.90;;;;;;;-145.41;100.00;58600.66;4987235;28;20113;-75
2023/05/04 00:23:28;;;;;;;6.22;3.97;;;;;;;-145.41;100.00;58600.66;4987080;28;20118;-75
2023/05/04 00:25:53;;;;;;;7.15;3.72;;;;;;;-145.41;100.00;58600.66;4984299;28;20552;-75
2023/05/04 00:28:19;;;;;;;8.23;4.00;;;;;;;-145.41;100.00;58600.66;4986889;28;20492;-75
2023/05/04 00:30:44;;;;;;;8.63;3.45;;;;;;;-145.41;100.00;58600.66;4988910;28;20529;-75
2023/05/04 00:33:09;;;;;;;9.55;4.45;;;;;;;-145.41;100.00;58600.66;4970903;28;20038;-74
2023/05/04 00:35:35;;;;;;;7.95;3.80;;;;;;;-145.41;100.00;58600.66;4966909;28;20101;-75
2023/05/04 00:38:03;;;;;;;8.50;4.05;;;;;;;-145.41;100.00;58600.66;4985101;28;20397;-74
2023/05/04 00:40:28;;;;;;;9.70;4.88;;;;;;;-145.41;100.00;58600.66;4984629;28;20039;-74
2023/05/04 00:42:54;;;;;;;9.32;4.05;;;;;;;-145.41;100.00;58600.66;4966946;28;20515;-75
2023/05/04 00:45:20;;;;;;;9.85;3.70;;;;;;;-145.41;100.00;58600.66;4985574;28;20533;-75
2023/05/04 00:47:45;;;;;;;9.35;4.55;;;;;;;-145.41;100.00;58600.66;4984259;28;20397;-75
2023/05/04 00:50:11;;;;;;;8.95;5.03;;;;;;;-145.41;100.00;58600.66;4985518;28;20593;-75
2023/05/04 00:52:38;;;;;;;10.05;4.75;;;;;;;-145.41;100.00;58600.66;4984869;28;20035;-75
2023/05/04 00:55:04;;;;;;;7.03;3.95;;;;;;;-145.41;100.00;58600.66;4983706;28;20073;-75
2023/05/04 00:57:30;;;;;;;12.13;4.07;;;;;;;-145.41;100.00;58600.66;4968001;28;20043;-75
2023/05/04 00:59:55;;;;;;;10.30;4.40;;;;;;;-145.41;100.00;58600.66;4983020;28;20034;-75
2023/05/04 01:02:20;;;;;;;10.05;4.35;;;;;;;-145.41;100.00;58600.66;4989061;28;20034;-75
2023/05/04 01:04:46;;;;;;;5.72;3.40;;;;;;;-145.41;100.00;58600.66;4986275;28;20038;-75
2023/05/04 01:07:30;;;;;;;6.30;3.50;;;;;;;-145.41;100.00;58600.66;4982879;28;20172;-74
2023/05/04 01:10:26;;;;;;;10.27;4.05;;;;;;;-145.41;100.00;58600.66;4985886;28;20066;-75
2023/05/04 01:13:06;;;;;;;11.65;4.40;;;;;;;-145.41;100.00;58600.66;4984381;28;20034;-75
2023/05/04 01:15:33;;;;;;;7.13;3.88;;;;;;;-145.41;100.00;58600.66;4965240;28;20591;-75
2023/05/04 01:17:59;;;;;;;6.70;3.20;;;;;;;-145.41;100.00;58600.66;4982976;28;20026;-75
2023/05/04 01:20:25;;;;;;;6.80;4.07;;;;;;;-145.41;100.00;58600.66;4970844;28;20046;-74
2023/05/04 01:22:50;;;;;;;6.57;3.47;;;;;;;-145.41;100.00;58600.66;4990453;28;20034;-75
2023/05/04 01:25:19;;;;;;;6.13;3.20;;;;;;;-145.41;100.00;58600.66;4969355;28;20038;-73
2023/05/04 01:28:17;;;;;;;7.20;3.75;;;;;;;-145.41;100.00;58600.66;4969463;28;20040;-75
2023/05/04 01:30:43;;;;;;;5.32;3.78;;;;;;;-145.41;100.00;58600.66;4966833;28;20540;-75
2023/05/04 01:33:10;;;;;;;7.53;3.90;;;;;;;-145.41;100.00;58600.66;4989321;28;20038;-74
2023/05/04 01:35:36;;;;;;;6.60;3.85;;;;;;;-145.41;100.00;58600.66;4973973;28;20034;-75
2023/05/04 01:38:01;;;;;;;9.40;4.10;;;;;;;-145.41;100.00;58600.66;4990698;28;20134;-75
2023/05/04 01:40:27;;;;;;;9.43;4.10;;;;;;;-145.41;100.00;58600.66;4986491;28;20563;-74
2023/05/04 01:42:52;;;;;;;16.92;7.70;;;;;;;-145.41;100.00;58600.66;4967051;28;20053;-75
2023/05/04 01:45:17;;;;;;;6.40;3.85;;;;;;;-145.41;100.00;58600.66;4982627;28;20031;-75
2023/05/04 01:47:43;;;;;;;7.65;3.90;;;;;;;-145.41;100.00;58600.66;4950341;28;20034;-74
2023/05/04 01:50:10;;;;;;;7.07;4.45;;;;;;;-145.41;100.00;58600.66;4957544;28;20408;-75
2023/05/04 01:52:35;;;;;;;5.63;3.40;;;;;;;-145.41;100.00;58600.66;4985670;28;20038;-75
2023/05/04 01:55:00;;;;;;;6.00;4.05;;;;;;;-145.41;100.00;58600.66;4984739;28;20041;-75
2023/05/04 01:57:26;;;;;;;6.78;3.80;;;;;;;-145.41;100.00;58600.66;4964237;28;20050;-75
2023/05/04 01:59:51;;;;;;;8.82;4.13;;;;;;;-145.41;100.00;58600.66;4967312;28;20045;-75
2023/05/04 02:02:17;;;;;;;7.63;3.90;;;;;;;-145.41;100.00;58600.66;4969513;28;20034;-75
2023/05/04 02:04:42;;;;;;;6.75;3.85;;;;;;;-145.41;100.00;58600.66;4974258;28;20029;-75
2023/05/04 02:07:07;;;;;;;9.13;4.95;;;;;;;-145.41;100.00;58600.66;4985055;28;20038;-75
2023/05/04 02:09:34;;;;;;;8.68;4.65;;;;;;;-145.41;100.00;58600.66;4984644;28;20073;-75
2023/05/04 02:11:59;;;;;;;7.35;3.65;;;;;;;-145.41;100.00;58600.66;4967387;28;20090;-75
2023/05/04 02:14:25;;;;;;;8.48;4.70;;;;;;;-145.41;100.00;58600.66;4967126;28;20394;-75
2023/05/04 02:16:50;;;;;;;10.52;5.10;;;;;;;-145.41;100.00;58600.66;4963901;28;20041;-74
2023/05/04 02:19:15;;;;;;;7.55;4.50;;;;;;;-145.41;100.00;58600.66;4984167;28;20030;-75
2023/05/04 02:21:41;;;;;;;7.03;3.70;;;;;;;-145.41;100.00;58600.66;4984633;28;20072;-75
2023/05/04 02:24:07;;;;;;;6.50;4.00;;;;;;;-145.41;100.00;58600.66;4964301;28;20503;-75
2023/05/04 02:26:33;;;;;;;8.10;4.05;;;;;;;-145.41;100.00;58600.66;4983925;28;20378;-74
2023/05/04 02:28:58;;;;;;;6.88;4.53;;;;;;;-145.41;100.00;58600.66;4982591;28;20442;-75
2023/05/04 02:31:24;;;;;;;6.45;3.97;;;;;;;-145.41;100.00;58600.66;4969079;28;20045;-74
2023/05/04 02:33:50;;;;;;;6.53;3.92;;;;;;;-145.41;100.00;58600.66;4981331;28;20038;-75
2023/05/04 02:36:16;;;;;;;9.10;4.70;;;;;;;-145.41;100.00;58600.66;4964588;28;20039;-75
2023/05/04 02:38:42;;;;;;;7.95;4.15;;;;;;;-145.41;100.00;58600.66;4982216;28;20042;-74
2023/05/04 02:41:09;;;;;;;7.82;4.20;;;;;;;-145.41;100.00;58600.66;4966685;28;20479;-75
2023/05/04 02:43:34;;;;;;;7.63;4.57;;;;;;;-145.41;100.00;58600.66;4982318;28;20035;-74
2023/05/04 02:45:59;;;;;;;6.10;4.20;;;;;;;-145.41;100.00;58600.66;4984408;28;20062;-75
2023/05/04 02:48:25;;;;;;;6.78;4.53;;;;;;;-145.41;100.00;58600.66;4982330;28;20031;-75
2023/05/04 02:50:51;;;;;;;10.45;4.43;;;;;;;-145.41;100.00;58600.66;4965306;28;20042;-75
2023/05/04 02:53:17;;;;;;;11.60;5.90;;;;;;;-145.41;100.00;58600.66;4981796;28;20042;-74
2023/05/04 02:55:42;;;;;;;10.15;5.38;;;;;;;-145.41;100.00;58600.66;4983621;28;20038;-74
2023/05/04 02:58:07;;;;;;;7.13;4.60;;;;;;;-145.41;100.00;58600.66;4981739;28;20039;-74
2023/05/04 03:00:33;;;;;;;9.23;5.55;;;;;;;-145.41;100.00;58600.66;4965588;28;20033;-75
2023/05/04 03:02:58;;;;;;;8.25;4.35;;;;;;;-145.41;100.00;58600.66;4984028;28;20505;-75
2023/05/04 03:05:23;;;;;;;7.38;4.55;;;;;;;-145.41;100.00;58600.66;4964245;28;20050;-75
2023/05/04 03:07:51;;;;;;;5.90;3.88;;;;;;;-145.41;100.00;58600.66;4966427;28;20512;-74
2023/05/04 03:10:16;;;;;;;7.05;4.30;;;;;;;-145.41;100.00;58600.66;4982833;28;20042;-75
2023/05/04 03:12:42;;;;;;;18.05;5.40;;;;;;;-145.41;100.00;58600.66;4969700;28;20043;-75
2023/05/04 03:15:07;;;;;;;85.00;6.63;;;;;;;-145.41;100.00;58600.66;4981382;28;20065;-76
2023/05/04 03:17:33;;;;;;;13.30;5.40;;;;;;;-145.41;100.00;58600.66;4982404;28;20038;-74
2023/05/04 03:19:58;;;;;;;7.13;4.18;;;;;;;-145.41;100.00;58600.66;4983112;28;20508;-75
2023/05/04 03:22:25;;;;;;;6.93;4.32;;;;;;;-145.41;100.00;58600.66;4962724;28;20531;-75
2023/05/04 03:24:51;;;;;;;7.25;3.80;;;;;;;-145.41;100.00;58600.66;4983898;28;20058;-75
2023/05/04 03:27:17;;;;;;;7.50;4.25;;;;;;;-145.41;100.00;58600.66;4963257;28;20058;-74
2023/05/04 03:29:42;;;;;;;8.02;4.70;;;;;;;-145.41;100.00;58600.66;4967474;28;20069;-75
2023/05/04 03:32:08;;;;;;;7.65;4.78;;;;;;;-145.41;100.00;58600.66;4971852;28;20042;-75
2023/05/04 03:34:34;;;;;;;7.70;4.47;;;;;;;-145.41;100.00;58600.66;4966629;28;20556;-75
2023/05/04 03:37:02;;;;;;;13.07;6.72;;;;;;;-145.41;100.00;58600.66;4966935;28;20027;-75
2023/05/04 03:39:28;;;;;;;9.35;5.57;;;;;;;-145.41;100.00;58600.66;4966101;28;20073;-75
2023/05/04 03:41:53;;;;;;;8.48;5.05;;;;;;;-145.41;100.00;58600.66;4963359;28;20111;-75
2023/05/04 03:44:18;;;;;;;9.23;5.05;;;;;;;-145.41;100.00;58600.66;4983660;28;20085;-75
2023/05/04 03:46:44;;;;;;;9.25;5.07;;;;;;;-145.41;100.00;58600.66;4982507;28;20040;-75
2023/05/04 03:49:10;;;;;;;8.07;4.70;;;;;;;-145.41;100.00;58600.66;4961865;28;20041;-75
2023/05/04 03:51:35;;;;;;;8.73;4.97;;;;;;;-145.41;100.00;58600.66;4965567;28;20085;-75
2023/05/04 03:54:01;;;;;;;6.55;3.90;;;;;;;-145.41;100.00;58600.66;4982169;28;20065;-75
2023/05/04 03:56:26;;;;;;;6.75;4.45;;;;;;;-145.41;100.00;58600.66;4965214;28;20110;-75
2023/05/04 03:58:51;;;;;;;9.00;4.15;;;;;;;-145.41;100.00;58600.66;4981765;28;20441;-74
2023/05/04 04:01:21;;;;;;;6.28;3.88;;;;;;;-145.41;100.00;58600.66;4984961;28;20038;-75
2023/05/04 04:03:46;;;;;;;9.02;4.32;;;;;;;-145.41;100.00;58600.66;4967717;28;20030;-75
2023/05/04 04:06:12;;;;;;;8.20;4.05;;;;;;;-145.41;100.00;58600.66;4966002;28;20034;-74
2023/05/04 04:08:37;;;;;;;10.00;4.10;;;;;;;-145.41;100.00;58600.66;4982214;28;20035;-74
2023/05/04 04:11:03;;;;;;;12.15;4.30;;;;;;;-145.41;100.00;58600.66;4963247;28;20149;-75
2023/05/04 04:13:28;;;;;;;9.30;4.50;;;;;;;-145.41;100.00;58600.66;4983328;28;20046;-75
2023/05/04 04:15:54;;;;;;;12.32;4.55;;;;;;;-145.41;100.00;58600.66;4985460;28;20042;-74
2023/05/04 04:18:19;;;;;;;10.48;4.32;;;;;;;-145.41;100.00;58600.66;4980666;28;20046;-75
2023/05/04 04:20:44;;;;;;;12.68;4.57;;;;;;;-145.41;100.00;58600.66;4985773;28;20536;-75
2023/05/04 04:23:10;;;;;;;11.32;4.68;;;;;;;-145.41;100.00;58600.66;4983362;28;20035;-74
2023/05/04 04:25:36;;;;;;;8.75;3.90;;;;;;;-145.41;100.00;58600.66;4986679;28;20034;-75
2023/05/04 04:28:02;;;;;;;17.42;8.40;;;;;;;-145.41;100.00;58600.66;4986919;28;20122;-75
2023/05/04 04:30:27;;;;;;;11.65;6.35;;;;;;;-145.41;100.00;58600.66;4991809;28;20114;-75
2023/05/04 04:32:55;;;;;;;8.68;5.43;;;;;;;-145.41;100.00;58600.66;4976815;28;20129;-75
2023/05/04 04:35:21;;;;;;;9.52;4.13;;;;;;;-145.41;100.00;58600.66;4986481;28;20041;-75
2023/05/04 04:37:46;;;;;;;9.82;4.93;;;;;;;-145.41;100.00;58600.66;4982952;28;20121;-75
2023/05/04 04:40:12;;;;;;;6.85;4.70;;;;;;;-145.41;100.00;58600.66;4968917;28;20142;-75
2023/05/04 04:42:37;;;;;;;8.77;4.60;;;;;;;-145.41;100.00;58600.66;4984050;28;20404;-75
2023/05/04 04:45:04;;;;;;;8.18;4.10;;;;;;;-145.41;100.00;58600.66;4988725;28;20502;-75
2023/05/04 04:47:30;;;;;;;7.53;4.22;;;;;;;-145.41;100.00;58600.66;4972570;28;20409;-75
2023/05/04 04:49:56;;;;;;;7.07;4.78;;;;;;;-145.41;100.00;58600.66;4985210;28;20038;-75
2023/05/04 04:52:22;;;;;;;7.78;4.03;;;;;;;-145.41;100.00;58600.66;4986395;28;20038;-75
2023/05/04 04:54:48;;;;;;;8.43;4.68;;;;;;;-145.41;100.00;58600.66;4966065;28;20540;-75
2023/05/04 04:57:13;;;;;;;12.88;8.82;;;;;;;-145.41;100.00;58600.66;4989498;28;20038;-75
2023/05/04 04:59:38;;;;;;;16.67;10.43;;;;;;;-145.41;100.00;58600.66;4973692;28;20042;-75
2023/05/04 05:02:04;;;;;;;27.60;18.55;;;;;;;-145.41;100.00;58600.66;4988193;28;20045;-75
2023/05/04 05:04:29;;;;;;;22.83;13.57;;;;;;;-145.41;100.00;58600.66;4988831;28;20041;-75
2023/05/04 05:06:55;;;;;;;11.85;8.38;;;;;;;-145.41;100.00;58600.66;4983576;28;20035;-75
2023/05/04 05:09:20;;;;;;;11.05;5.97;;;;;;;-145.41;100.00;58600.66;4984294;28;20092;-75
2023/05/04 05:11:46;;;;;;;7.45;5.18;;;;;;;-145.41;100.00;58600.66;4983041;28;20034;-75
2023/05/04 05:14:11;;;;;;;7.63;5.07;;;;;;;-145.41;100.00;58600.66;4989202;28;20065;-75
2023/05/04 05:16:37;;;;;;;7.82;4.60;;;;;;;-145.41;100.00;58600.66;4984184;28;20031;-74
2023/05/04 05:19:02;;;;;;;8.85;5.28;;;;;;;-145.41;100.00;58600.66;4983749;28;20038;-75
2023/05/04 05:21:27;;;;;;;10.63;5.47;;;;;;;-145.41;100.00;58600.66;4966420;28;20130;-75
2023/05/04 05:23:53;;;;;;;12.02;6.55;;;;;;;-145.41;100.00;58600.66;4952074;28;20026;-76
2023/05/04 05:26:18;;;;;;;10.93;6.10;;;;;;;-145.41;100.00;58600.66;4983763;28;20050;-75
2023/05/04 05:28:43;;;;;;;18.33;7.25;;;;;;;-145.41;100.00;58600.66;4984097;28;20120;-76
2023/05/04 05:31:09;;;;;;;11.88;6.25;;;;;;;-145.41;100.00;58600.66;4983902;28;20458;-75
2023/05/04 05:33:34;;;;;;;12.55;6.45;;;;;;;-145.41;100.00;58600.66;4989060;28;20464;-75
2023/05/04 05:35:59;;;;;;;9.50;5.68;;;;;;;-145.41;100.00;58600.66;4985393;28;20035;-76
2023/05/04 05:38:25;;;;;;;12.40;6.53;;;;;;;-145.41;100.00;58600.66;4983122;28;20068;-75
2023/05/04 05:40:51;;;;;;;16.17;6.78;;;;;;;-145.41;100.00;58600.66;4983791;28;20116;-76
2023/05/04 05:43:16;;;;;;;10.10;5.55;;;;;;;-145.41;100.00;58600.66;4981968;28;20034;-76
2023/05/04 05:45:41;;;;;;;17.80;9.68;;;;;;;-145.41;100.00;58600.66;4985532;28;20197;-75
2023/05/04 05:48:07;;;;;;;9.98;6.53;;;;;;;-145.41;100.00;58600.66;4990170;28;20038;-76
2023/05/04 05:50:33;;;;;;;8.77;5.85;;;;;;;-145.41;100.00;58600.66;4989346;28;20038;-75
2023/05/04 05:52:58;;;;;;;9.85;6.00;;;;;;;-145.41;100.00;58600.66;4984989;28;20041;-76
2023/05/04 05:55:23;;;;;;;10.23;5.70;;;;;;;-145.41;100.00;58600.66;4986177;28;20034;-75
2023/05/04 05:57:49;;;;;;;10.98;6.35;;;;;;;-145.41;100.00;58600.66;4989145;28;20042;-76
2023/05/04 06:00:15;;;;;;;8.05;5.75;;;;;;;-145.41;100.00;58600.66;4987943;28;20050;-76
2023/05/04 06:02:40;;;;;;;11.80;5.65;;;;;;;-145.41;100.00;58600.66;5037038;23;20084;-74
2023/05/04 06:05:06;;;;;;;9.02;6.07;;;;;;;-145.41;100.00;58600.66;5022443;28;20072;-74
2023/05/04 06:07:31;;;;;;;7.40;5.13;;;;;;;-145.41;100.00;58600.66;5020414;28;20041;-73
2023/05/04 06:09:56;;;;;;;11.25;6.50;;;;;;;-145.41;100.00;58600.66;5018002;28;20403;-73
2023/05/04 06:12:22;;;;;;;12.63;6.95;;;;;;;-145.41;100.00;58600.66;5006207;28;20449;-74
2023/05/04 06:14:47;;;;;;;20.35;9.45;;;;;;;-145.41;100.00;58600.66;5004151;28;20059;-74
2023/05/04 06:17:12;;;;;;;18.50;10.90;;;;;;;-145.41;100.00;58600.66;5003201;28;20048;-74
2023/05/04 06:19:38;;;;;;;13.77;9.15;;;;;;;-145.41;100.00;58600.66;4999982;28;20121;-74
2023/05/04 06:22:04;;;;;;;10.82;6.22;;;;;;;-145.41;100.00;58600.66;4992346;28;20070;-73
2023/05/04 06:24:31;;;;;;;9.68;6.28;;;;;;;-145.41;100.00;58600.66;4986645;28;20097;-74
2023/05/04 06:26:56;;;;;;;7.85;5.10;;;;;;;-145.41;100.00;58600.66;5000924;28;20042;-74
2023/05/04 06:29:22;;;;;;;13.25;9.45;;;;;;;-145.41;100.00;58600.66;5000592;28;20417;-74
2023/05/04 06:31:47;;;;;;;10.65;6.95;;;;;;;-145.41;100.00;58600.66;5003340;28;20460;-73
2023/05/04 06:34:15;;;;;;;8.52;5.45;;;;;;;-145.41;100.00;58600.66;4997180;28;20034;-74
2023/05/04 06:36:41;;;;;;;15.70;9.75;;;;;;;-145.41;100.00;58600.66;4999281;28;20608;-74
2023/05/04 06:39:06;;;;;;;10.23;6.82;;;;;;;-145.41;100.00;58600.66;5000390;28;20038;-74
2023/05/04 06:41:31;;;;;;;11.35;5.53;;;;;;;-145.41;100.00;58600.66;5001428;28;20078;-74
2023/05/04 06:43:58;;;;;;;20.75;11.90;;;;;;;-145.41;100.00;58600.66;5003595;28;20030;-74
2023/05/04 06:46:24;;;;;;;14.07;9.43;;;;;;;-145.41;100.00;58600.66;4984820;28;20091;-74
2023/05/04 06:48:49;;;;;;;11.45;7.80;;;;;;;-145.41;100.00;58600.66;4999105;28;20500;-74
2023/05/04 06:51:15;;;;;;;11.85;6.30;;;;;;;-145.41;100.00;58600.66;5001643;28;20409;-74
2023/05/04 06:53:40;;;;;;;11.80;5.97;;;;;;;-145.41;100.00;58600.66;5001817;28;20439;-74
2023/05/04 06:56:06;;;;;;;11.73;7.30;;;;;;;-145.41;100.00;58600.66;5000707;28;20175;-74
2023/05/04 06:58:31;;;;;;;15.02;7.72;;;;;;;-145.41;100.00;58600.66;4983410;28;20031;-74
2023/05/04 07:00:57;;;;;;;8.18;6.32;;;;;;;-145.41;100.00;58600.66;5001047;28;20034;-74
2023/05/04 07:03:22;;;;;;;11.25;6.13;;;;;;;-145.41;100.00;58600.66;5001021;28;20025;-73
2023/05/04 07:05:49;;;;;;;10.40;6.05;;;;;;;-145.41;100.00;58600.66;5002005;28;20492;-74
2023/05/04 07:08:15;;;;;;;8.82;6.15;;;;;;;-145.41;100.00;58600.66;4982311;28;20502;-74
2023/05/04 07:10:40;;;;;;;11.35;7.03;;;;;;;-145.41;100.00;58600.66;5000539;28;20052;-74
2023/05/04 07:13:06;;;;;;;12.18;7.32;;;;;;;-145.41;100.00;58600.66;5002319;28;20091;-74
2023/05/04 07:15:35;;;;;;;10.75;7.88;;;;;;;-145.41;100.00;58600.66;5000500;28;20096;-74
2023/05/04 07:18:01;;;;;;;12.27;6.40;;;;;;;-145.41;100.00;58600.66;5000478;28;20033;-74
2023/05/04 07:20:27;;;;;;;9.23;6.07;;;;;;;-145.41;100.00;58600.66;5003005;28;20026;-74
2023/05/04 07:22:55;;;;;;;11.40;6.43;;;;;;;-145.41;100.00;58600.66;4999530;28;20416;-74
2023/05/04 07:25:25;;;;;;;15.77;11.60;;;;;;;-145.41;100.00;58600.66;4996466;28;20525;-74
2023/05/04 07:27:51;;;;;;;18.02;14.05;;;;;;;-145.41;100.00;58600.66;5002294;28;20048;-74
2023/05/04 07:30:17;;;;;;;14.30;11.07;;;;;;;-145.41;100.00;58600.66;5000418;28;20504;-74
2023/05/04 07:32:43;;;;;;;9.43;7.50;;;;;;;-145.41;100.00;58600.66;5001222;28;20038;-74
2023/05/04 07:35:08;;;;;;;10.32;8.50;;;;;;;-145.41;100.00;58600.66;4997849;28;20400;-74
2023/05/04 07:37:34;;;;;;;14.52;9.85;;;;;;;-145.41;100.00;58600.66;5001766;28;20042;-74
2023/05/04 07:40:00;;;;;;;14.13;10.57;;;;;;;-145.41;100.00;58600.66;4987465;28;20378;-74
2023/05/04 07:42:26;;;;;;;17.15;10.55;;;;;;;-145.41;100.00;58600.66;4998077;28;20072;-74
2023/05/04 07:44:52;;;;;;;19.45;15.32;;;;;;;-145.41;100.00;58600.66;5001443;28;20066;-74
2023/05/04 07:47:18;;;;;;;13.90;8.30;;;;;;;-145.41;100.00;58600.66;5001020;28;20444;-74
2023/05/04 07:49:43;;;;;;;11.50;7.32;;;;;;;-145.41;100.00;58600.66;5001334;28;20073;-74
2023/05/04 07:52:09;;;;;;;11.70;6.80;;;;;;;-145.41;100.00;58600.66;4999221;28;20114;-74
2023/05/04 07:54:35;;;;;;;14.93;6.97;;;;;;;-145.41;100.00;58600.66;4996639;28;20084;-74
2023/05/04 07:57:03;;;;;;;16.55;8.27;;;;;;;-145.41;100.00;58600.66;4997404;28;20096;-74
2023/05/04 07:59:32;;;;;;;12.00;5.90;;;;;;;-145.41;100.00;58600.66;4998594;28;20061;-74
2023/05/04 08:01:57;;;;;;;8.32;6.18;;;;;;;-145.41;100.00;58600.66;5002851;28;20046;-74
2023/05/04 08:04:22;;;;;;;15.88;7.03;;;;;;;-145.41;100.00;58600.66;5005471;28;20448;-74
2023/05/04 08:06:48;;;;;;;11.15;4.88;;;;;;;-145.41;100.00;58600.66;5006667;28;20041;-74
2023/05/04 08:09:14;;;;;;;9.00;6.32;;;;;;;-145.41;100.00;58600.66;5002631;28;20073;-74
2023/05/04 08:11:40;;;;;;;8.85;5.65;;;;;;;-145.41;100.00;58600.66;4998999;28;20046;-74
2023/05/04 08:14:05;;;;;;;13.35;5.78;;;;;;;-145.41;100.00;58600.66;5006054;28;20034;-74
2023/05/04 08:16:31;;;;;;;9.77;6.05;;;;;;;-145.41;100.00;58600.66;5002962;28;20387;-74
2023/05/04 08:18:57;;;;;;;8.48;5.10;;;;;;;-145.41;100.00;58600.66;5005407;28;20038;-74
2023/05/04 08:21:22;;;;;;;11.02;6.32;;;;;;;-145.41;100.00;58600.66;5000606;28;20050;-74
2023/05/04 08:23:48;;;;;;;10.75;7.80;;;;;;;-145.41;100.00;58600.66;4999000;28;20041;-74
2023/05/04 08:26:14;;;;;;;11.90;5.57;;;;;;;-145.41;100.00;58600.66;5005073;28;20046;-74
2023/05/04 08:28:39;;;;;;;10.60;6.90;;;;;;;-145.41;100.00;58600.66;5002766;28;20421;-74
2023/05/04 08:31:05;;;;;;;9.68;5.25;;;;;;;-145.41;100.00;58600.66;5003712;28;20136;-74
2023/05/04 08:33:31;;;;;;;11.02;6.15;;;;;;;-145.41;100.00;58600.66;5005418;28;20077;-74
2023/05/04 08:35:57;;;;;;;10.20;5.05;;;;;;;-145.41;100.00;58600.66;4984820;28;20177;-74
2023/05/04 08:38:22;;;;;;;8.10;4.07;;;;;;;-145.41;100.00;58600.66;5000376;28;20042;-74
2023/05/04 08:40:48;;;;;;;11.05;4.72;;;;;;;-145.41;100.00;58600.66;5001839;28;20497;-74
2023/05/04 08:43:14;;;;;;;8.73;3.38;;;;;;;-145.41;100.00;58600.66;4994495;28;20087;-74
2023/05/04 08:45:40;;;;;;;10.13;4.10;;;;;;;-145.41;100.00;58600.66;5003546;28;20041;-74
2023/05/04 08:48:06;;;;;;;7.03;4.05;;;;;;;-145.41;100.00;58600.66;5004096;28;20491;-74
2023/05/04 08:50:36;;;;;;;6.00;3.45;;;;;;;-145.41;100.00;58600.66;5002465;28;20041;-74
2023/05/04 08:53:04;;;;;;;6.32;3.15;;;;;;;-145.41;100.00;58600.66;5001922;28;20144;-74
2023/05/04 08:55:35;;;;;;;7.82;3.28;;;;;;;-145.41;100.00;58600.66;5004019;28;20112;-74
2023/05/04 08:58:05;;;;;;;8.20;2.90;;;;;;;-145.41;100.00;58600.66;5000471;28;20061;-74
2023/05/04 09:00:31;;;;;;;9.50;3.20;;;;;;;-145.41;100.00;58600.66;4982106;28;20039;-74
2023/05/04 09:02:59;;;;;;;8.32;3.85;;;;;;;-145.41;100.00;58600.66;5002639;28;20034;-74
2023/05/04 09:05:29;;;;;;;6.47;2.63;;;;;;;-145.41;100.00;58600.66;5003776;28;20077;-74
2023/05/04 09:07:54;;;;;;;5.28;2.80;;;;;;;-145.41;100.00;58600.66;5001690;28;20061;-75
2023/05/04 09:10:20;;;;;;;6.80;2.53;;;;;;;-145.41;100.00;58600.66;5002812;28;20453;-74
2023/05/04 09:12:46;;;;;;;5.85;2.78;;;;;;;-145.41;100.00;58600.66;5004894;28;20124;-74
2023/05/04 09:15:18;;;;;;;5.50;2.60;;;;;;;-145.41;100.00;58600.66;5004099;28;20069;-74
2023/05/04 09:17:58;;;;;;;8.90;2.75;;;;;;;-145.41;100.00;58600.66;5001725;28;20126;-74
2023/05/04 09:20:24;;;;;;;6.55;2.50;;;;;;;-145.41;100.00;58600.66;5000122;28;20116;-74
2023/05/04 09:23:06;;;;;;;9.50;5.22;;;;;;;-145.41;100.00;58600.66;5003746;28;20042;-74
2023/05/04 09:25:33;;;;;;;11.45;6.03;;;;;;;-145.41;100.00;58600.66;4997812;28;20045;-74
2023/05/04 09:27:59;;;;;;;7.13;4.30;;;;;;;-145.41;100.00;58600.66;5005025;28;20037;-74
2023/05/04 09:30:25;;;;;;;8.18;4.53;;;;;;;-145.41;100.00;58600.66;5001620;28;20405;-74
2023/05/04 09:32:51;;;;;;;6.25;3.60;;;;;;;-145.41;100.00;58600.66;5001475;28;20038;-74
2023/05/04 09:35:25;;;;;;;5.65;2.30;;;;;;;-145.41;100.00;58600.66;4986946;28;20563;-74
2023/05/04 09:37:50;;;;;;;5.15;2.25;;;;;;;-145.41;100.00;58600.66;4996011;28;20508;-74
2023/05/04 09:40:16;;;;;;;5.82;2.53;;;;;;;-145.41;100.00;58600.66;5000608;28;20065;-74
2023/05/04 09:42:41;;;;;;;7.85;3.33;;;;;;;-145.41;100.00;58600.66;4998421;28;20041;-74
2023/05/04 09:45:08;;;;;;;10.65;5.30;;;;;;;-145.41;100.00;58600.66;4983315;28;20045;-74
2023/05/04 09:47:38;;;;;;;8.63;3.58;;;;;;;-145.41;100.00;58600.66;5000724;28;20045;-74
2023/05/04 09:50:18;;;;;;;6.47;3.55;;;;;;;-145.41;100.00;58600.66;4981330;28;20047;-75
2023/05/04 09:52:45;;;;;;;6.05;3.10;;;;;;;-145.41;100.00;58600.66;4999745;28;20038;-75
2023/05/04 09:55:12;;;;;;;6.80;2.95;;;;;;;-145.41;100.00;58600.66;5004165;28;20034;-75
2023/05/04 09:57:40;;;;;;;4.63;2.92;;;;;;;-145.41;100.00;58600.66;5000669;28;20104;-75
2023/05/04 10:00:07;;;;;;;6.70;2.83;;;;;;;-145.41;100.00;58600.66;4997894;28;20058;-74
2023/05/04 10:02:33;;;;;;;9.07;4.10;;;;;;;-145.41;100.00;58600.66;5001214;28;20060;-75
2023/05/04 10:04:59;;;;;;;6.40;2.90;;;;;;;-145.41;100.00;58600.66;4985880;28;20536;-75
2023/05/04 10:07:28;;;;;;;8.60;3.50;;;;;;;-145.41;100.00;58600.66;5001459;28;20104;-75
2023/05/04 10:09:54;;;;;;;8.20;3.50;;;;;;;-145.41;100.00;58600.66;5003926;28;20037;-75
2023/05/04 10:12:20;;;;;;;5.88;2.85;;;;;;;-145.41;100.00;58600.66;4994159;28;20034;-75
2023/05/04 10:14:45;;;;;;;3.90;2.03;;;;;;;-145.41;100.00;58600.66;5000304;28;20080;-75
2023/05/04 10:17:43;;;;;;;5.88;3.20;;;;;;;-145.41;100.00;58600.66;4996529;28;20049;-75
2023/05/04 10:20:26;;;;;;;6.55;3.40;;;;;;;-145.41;100.00;58600.66;4997222;28;20046;-75
2023/05/04 10:23:13;;;;;;;7.13;2.60;;;;;;;-145.41;100.00;58600.66;5000419;28;20493;-75
2023/05/04 10:25:41;;;;;;;5.35;1.88;;;;;;;-145.41;100.00;58600.66;5000382;28;20108;-75
2023/05/04 10:28:26;;;;;;;3.97;1.73;;;;;;;-145.41;100.00;58600.66;5001447;28;20034;-75
2023/05/04 10:30:57;;;;;;;7.00;3.88;;;;;;;-145.41;100.00;58600.66;4998674;28;20026;-75
2023/05/04 10:33:23;;;;;;;;;;;;;;;-145.41;100.00;58600.66;5000882;28;20041;-75
2023/05/04 10:35:53;;;;;;;6.68;2.65;;;;;;;-145.41;100.00;58600.66;5002429;28;19914;-75
2023/05/04 10:38:19;;;;;;;6.80;2.67;;;;;;;-145.41;100.00;58600.66;5000952;28;20038;-75
2023/05/04 10:40:47;;;;;;;5.55;3.47;;;;;;;-145.41;100.00;58600.66;5002819;28;20196;-75
2023/05/04 10:43:24;;;;;;;6.05;3.08;;;;;;;-145.41;100.00;58600.66;4998691;28;20034;-75
2023/05/04 10:45:50;;;;;;;6.35;3.17;;;;;;;-145.41;100.00;58600.66;4997393;28;20489;-75
2023/05/04 10:48:16;;;;;;;8.70;3.05;;;;;;;-145.41;100.00;58600.66;5002059;28;20053;-75
2023/05/04 10:50:42;;;;;;;6.15;3.90;;;;;;;-145.41;100.00;58600.66;5001254;28;20041;-75
2023/05/04 10:53:08;;;;;;;6.68;2.65;;;;;;;-145.41;100.00;58600.66;5001868;28;20476;-75
2023/05/04 10:55:44;;;;;;;5.63;2.30;;;;;;;-145.41;100.00;58600.66;4999720;28;20072;-75
2023/05/04 10:58:13;;;;;;;6.22;2.42;;;;;;;-145.41;100.00;58600.66;5003301;28;20045;-75
2023/05/04 11:00:46;;;;;;;5.95;2.20;;;;;;;-145.41;100.00;58600.66;4995842;28;20034;-75
2023/05/04 11:03:12;;;;;;;8.18;4.47;;;;;;;-145.41;100.00;58600.66;5002685;28;20465;-75
2023/05/04 11:05:45;;;;;;;6.50;3.00;;;;;;;-145.41;100.00;58600.66;5000943;28;20109;-75